Aviation Digital Data Service (ADDS)

Output produced by METARs form (1404 UTC 19 January 2019)
found at http://www.aviationweather.gov/metar/data/
 
METAR text: RJTC 180235Z 36016G29KT 320V030 9999 FEW030 08/M19 Q1016 RMK 1CU030 A3000
Conditions at: RJTC (TACHIKAWA (JASDF, JP) observed 0235 UTC 18 January 2019
Temperature: 8.0°C (46°F)
Dewpoint: -19.0°C (-2°F) [RH = 13%]
Pressure (altimeter): 30.00 inches Hg (1016.0 mb)
Winds: from the N (360 degrees) at 18 MPH (16 knots; 8.2 m/s)
gusting to 33 MPH (29 knots; 14.9 m/s)
Visibility: 6 or more miles (10+ km)
Ceiling: at least 12,000 feet AGL
Clouds: few clouds at 3000 feet AGL
Weather: no significant weather observed at this time